createdAt,value
2018-12-26T00:00:07.151Z,6.80
2018-12-26T00:01:07.035Z,7.60
2018-12-26T00:02:07.004Z,7.30
2018-12-26T00:03:06.972Z,7.50
2018-12-26T00:04:06.940Z,7.20
2018-12-26T00:05:06.910Z,7.10
2018-12-26T00:06:06.879Z,7.30
2018-12-26T00:07:06.847Z,7.30
2018-12-26T00:08:06.817Z,7.30
2018-12-26T00:09:06.790Z,7.40
2018-12-26T00:10:06.754Z,8.00
2018-12-26T00:11:06.724Z,7.60
2018-12-26T00:12:06.695Z,6.90
2018-12-26T00:13:06.662Z,6.00
2018-12-26T00:14:06.633Z,7.60
2018-12-26T00:15:06.598Z,6.20
2018-12-26T00:16:06.568Z,7.40
2018-12-26T00:17:06.538Z,7.80
2018-12-26T00:18:06.508Z,7.10
2018-12-26T00:19:06.475Z,8.20
2018-12-26T00:20:06.478Z,7.10
2018-12-26T00:21:06.417Z,9.30
2018-12-26T00:22:06.380Z,9.50
2018-12-26T00:23:06.348Z,10.30
2018-12-26T00:24:06.319Z,7.70
2018-12-26T00:25:06.310Z,10.50
2018-12-26T00:26:06.256Z,9.70
2018-12-26T00:27:06.224Z,10.90
2018-12-26T00:28:06.196Z,9.00
2018-12-26T00:29:06.614Z,11.00
2018-12-26T00:30:06.130Z,10.80
2018-12-26T00:31:06.103Z,10.80
2018-12-26T00:32:06.069Z,11.50
2018-12-26T00:33:06.036Z,11.60
2018-12-26T00:34:06.005Z,11.90
2018-12-26T00:35:05.976Z,10.50
2018-12-26T00:36:05.943Z,10.60
2018-12-26T00:37:05.911Z,11.50
2018-12-26T00:38:05.881Z,10.10
2018-12-26T00:39:05.846Z,12.50
2018-12-26T00:40:05.819Z,11.00
2018-12-26T00:41:05.783Z,13.20
2018-12-26T00:42:05.753Z,12.60
2018-12-26T00:43:05.721Z,13.10
2018-12-26T00:44:05.689Z,13.20
2018-12-26T00:45:05.659Z,12.90
2018-12-26T00:46:05.629Z,12.10
2018-12-26T00:47:05.594Z,13.60
2018-12-26T00:48:05.564Z,13.60
2018-12-26T00:49:05.530Z,13.00
2018-12-26T00:50:05.499Z,13.90
2018-12-26T00:51:05.476Z,12.40
2018-12-26T00:52:05.437Z,11.10
2018-12-26T00:53:05.405Z,12.50
2018-12-26T00:54:05.375Z,13.30
2018-12-26T00:55:05.342Z,13.40
2018-12-26T00:56:10.459Z,12.00
2018-12-26T00:57:05.282Z,12.80
2018-12-26T00:58:05.265Z,14.00
2018-12-26T00:59:05.215Z,14.10
2018-12-26T01:00:05.187Z,13.90
2018-12-26T01:01:05.151Z,14.70
2018-12-26T01:02:05.128Z,15.40
2018-12-26T01:03:05.091Z,11.30
2018-12-26T01:04:05.064Z,15.50
2018-12-26T01:05:05.029Z,14.50
2018-12-26T01:06:05.026Z,13.70
2018-12-26T01:07:04.961Z,12.50
2018-12-26T01:08:04.931Z,16.00
2018-12-26T01:09:04.898Z,15.30
2018-12-26T01:10:04.867Z,15.90
2018-12-26T01:11:04.834Z,16.60
2018-12-26T01:12:04.801Z,18.80
2018-12-26T01:13:04.772Z,16.10
2018-12-26T01:14:04.741Z,14.60
2018-12-26T01:15:04.709Z,16.80
2018-12-26T01:16:04.676Z,16.60
2018-12-26T01:17:04.644Z,17.50
2018-12-26T01:18:04.612Z,16.20
2018-12-26T01:19:04.580Z,16.00
2018-12-26T01:20:04.548Z,20.50
2018-12-26T01:21:04.516Z,16.20
2018-12-26T01:22:04.484Z,17.30
2018-12-26T01:23:04.452Z,16.70
2018-12-26T01:24:04.421Z,18.70
2018-12-26T01:25:04.389Z,19.90
2018-12-26T01:26:04.363Z,20.80
2018-12-26T01:27:04.326Z,20.70
2018-12-26T01:28:04.293Z,21.10
2018-12-26T01:29:04.262Z,21.00
2018-12-26T01:30:04.229Z,21.50
2018-12-26T01:31:04.198Z,20.40
2018-12-26T01:32:04.166Z,19.50
2018-12-26T01:33:04.138Z,20.60
2018-12-26T01:34:04.104Z,21.20
2018-12-26T01:35:04.070Z,26.80
2018-12-26T01:36:04.038Z,25.10
2018-12-26T01:37:04.220Z,21.00
2018-12-26T01:38:03.975Z,24.60
2018-12-26T01:39:03.942Z,24.30
2018-12-26T01:40:03.911Z,22.10
2018-12-26T01:41:03.887Z,23.90
2018-12-26T01:42:03.848Z,28.70
2018-12-26T01:43:03.816Z,26.80
2018-12-26T01:44:03.783Z,26.10
2018-12-26T01:45:03.757Z,25.70
2018-12-26T01:46:03.721Z,25.80
2018-12-26T01:47:03.687Z,29.60
2018-12-26T01:48:03.656Z,24.00
2018-12-26T01:49:03.628Z,25.50
2018-12-26T01:50:03.593Z,26.20
2018-12-26T01:51:03.561Z,26.40
2018-12-26T01:52:03.527Z,26.00
2018-12-26T01:53:03.497Z,24.80
2018-12-26T01:54:03.464Z,27.60
2018-12-26T01:55:03.433Z,28.30
2018-12-26T01:56:03.403Z,32.90
2018-12-26T01:57:03.369Z,27.80
2018-12-26T01:58:03.338Z,24.70
2018-12-26T01:59:03.306Z,25.80
2018-12-26T02:00:03.277Z,27.50
2018-12-26T02:01:03.242Z,31.00
2018-12-26T02:02:03.210Z,31.40
2018-12-26T02:03:03.176Z,34.00
2018-12-26T02:04:03.150Z,33.50
2018-12-26T02:05:03.117Z,35.60
2018-12-26T02:06:03.086Z,30.80
2018-12-26T02:07:03.053Z,34.20
2018-12-26T02:08:03.022Z,23.60
2018-12-26T02:09:02.989Z,33.20
2018-12-26T02:10:02.957Z,29.40
2018-12-26T02:11:02.923Z,32.20
2018-12-26T02:12:02.891Z,31.10
2018-12-26T02:13:02.859Z,35.40
2018-12-26T02:14:02.828Z,33.90
2018-12-26T02:15:02.795Z,33.40
2018-12-26T02:16:02.763Z,34.90
2018-12-26T02:17:02.736Z,40.10
2018-12-26T02:18:02.700Z,39.30
2018-12-26T02:19:02.668Z,36.80
2018-12-26T02:20:02.637Z,28.70
2018-12-26T02:21:02.702Z,31.10
2018-12-26T02:22:02.573Z,33.80
2018-12-26T02:23:02.542Z,35.90
2018-12-26T02:24:02.508Z,35.50
2018-12-26T02:25:02.483Z,29.60
2018-12-26T02:26:02.444Z,35.00
2018-12-26T02:27:02.411Z,31.00
2018-12-26T02:28:02.380Z,35.20
2018-12-26T02:29:02.350Z,29.80
2018-12-26T02:30:02.320Z,30.20
2018-12-26T02:31:02.325Z,30.80
2018-12-26T02:32:02.258Z,31.00
2018-12-26T02:33:02.222Z,31.20
2018-12-26T02:34:02.188Z,38.00
2018-12-26T02:35:02.162Z,31.30
2018-12-26T02:36:02.156Z,32.30
2018-12-26T02:37:02.148Z,38.20
2018-12-26T02:38:02.062Z,40.30
2018-12-26T02:39:02.029Z,35.20
2018-12-26T02:40:01.998Z,39.00
2018-12-26T02:41:01.966Z,39.00
2018-12-26T02:42:01.933Z,39.60
2018-12-26T02:43:01.903Z,37.30
2018-12-26T02:44:01.875Z,35.60
2018-12-26T02:45:01.843Z,36.40
2018-12-26T02:46:01.808Z,30.20
2018-12-26T02:47:01.778Z,40.20
2018-12-26T02:48:01.747Z,38.50
2018-12-26T02:49:01.757Z,32.80
2018-12-26T02:50:01.688Z,38.60
2018-12-26T02:51:01.646Z,38.20
2018-12-26T02:52:01.619Z,40.20
2018-12-26T02:53:01.582Z,31.10
2018-12-26T02:54:01.553Z,36.00
2018-12-26T02:55:01.533Z,34.00
2018-12-26T02:56:01.493Z,37.40
2018-12-26T02:57:01.456Z,38.80
2018-12-26T02:58:01.428Z,39.20
2018-12-26T02:59:01.395Z,40.30
2018-12-26T03:00:01.360Z,36.40
2018-12-26T03:01:01.329Z,34.90
2018-12-26T03:02:01.298Z,34.40
2018-12-26T03:03:01.265Z,31.90
2018-12-26T03:04:01.233Z,43.30
2018-12-26T03:05:01.213Z,39.70
2018-12-26T03:06:01.171Z,40.70
2018-12-26T03:07:01.137Z,38.40
2018-12-26T03:08:01.105Z,37.70
2018-12-26T03:09:01.074Z,38.10
2018-12-26T03:10:01.070Z,38.30
2018-12-26T03:11:01.010Z,30.00
2018-12-26T03:12:00.979Z,33.60
2018-12-26T03:13:00.947Z,31.20
2018-12-26T03:14:03.168Z,29.70
2018-12-26T03:15:00.901Z,31.80
2018-12-26T03:16:00.850Z,32.30
2018-12-26T03:17:00.821Z,33.00
2018-12-26T03:18:00.790Z,33.80
2018-12-26T03:19:00.756Z,35.30
2018-12-26T03:20:00.723Z,27.00
2018-12-26T03:21:00.695Z,33.10
2018-12-26T03:22:00.664Z,38.90
2018-12-26T03:23:00.629Z,34.80
2018-12-26T03:24:00.596Z,36.50
2018-12-26T03:25:00.564Z,35.60
2018-12-26T03:26:00.531Z,37.20
2018-12-26T03:27:00.520Z,36.10
2018-12-26T03:28:00.469Z,37.10
2018-12-26T03:29:00.437Z,35.10
2018-12-26T03:30:00.407Z,41.90
2018-12-26T03:31:00.374Z,38.10
2018-12-26T03:32:00.362Z,27.90
2018-12-26T03:33:00.316Z,34.50
2018-12-26T03:34:00.278Z,34.90
2018-12-26T03:35:00.267Z,33.90
2018-12-26T03:36:00.215Z,30.20
2018-12-26T03:37:00.182Z,29.60
2018-12-26T03:38:00.151Z,34.30
2018-12-26T03:39:00.121Z,35.90
2018-12-26T03:40:00.087Z,39.00
2018-12-26T03:41:00.055Z,34.10
2018-12-26T03:42:00.024Z,34.80
2018-12-26T03:42:59.990Z,35.00
2018-12-26T03:43:59.959Z,39.60
2018-12-26T03:44:59.926Z,40.50
2018-12-26T03:45:59.900Z,34.80
2018-12-26T03:46:59.862Z,36.50
2018-12-26T03:47:59.830Z,28.20
2018-12-26T03:48:59.799Z,38.00
2018-12-26T03:49:59.768Z,30.60
2018-12-26T03:50:59.734Z,32.50
2018-12-26T03:52:02.086Z,36.90
2018-12-26T03:52:59.671Z,38.80
2018-12-26T03:53:59.641Z,32.50
2018-12-26T03:54:59.609Z,41.90
2018-12-26T03:55:59.577Z,41.20
2018-12-26T03:57:06.051Z,41.20
2018-12-26T03:57:59.512Z,47.70
2018-12-26T03:58:59.479Z,38.80
2018-12-26T03:59:59.448Z,35.00
2018-12-26T04:00:59.415Z,32.10
2018-12-26T04:01:59.397Z,43.80
2018-12-26T04:02:59.356Z,37.00
2018-12-26T04:03:59.320Z,41.60
2018-12-26T04:04:59.289Z,48.40
2018-12-26T04:05:59.257Z,43.60
2018-12-26T04:06:59.225Z,45.20
2018-12-26T04:07:59.199Z,39.30
2018-12-26T04:08:59.161Z,45.50
2018-12-26T04:09:59.133Z,45.60
2018-12-26T04:10:59.098Z,43.10
2018-12-26T04:11:59.067Z,36.50
2018-12-26T04:12:59.150Z,48.00
2018-12-26T04:13:59.002Z,43.40
2018-12-26T04:14:58.970Z,46.80
2018-12-26T04:15:58.940Z,43.40
2018-12-26T04:16:58.956Z,40.40
2018-12-26T04:17:58.877Z,43.80
2018-12-26T04:18:58.841Z,46.50
2018-12-26T04:19:58.828Z,47.90
2018-12-26T04:20:58.779Z,44.20
2018-12-26T04:21:58.746Z,45.00
2018-12-26T04:22:58.713Z,37.70
2018-12-26T04:23:58.681Z,31.20
2018-12-26T04:24:58.650Z,41.00
2018-12-26T04:25:58.621Z,43.30
2018-12-26T04:26:58.587Z,39.00
2018-12-26T04:27:58.555Z,37.20
2018-12-26T04:28:58.525Z,37.20
2018-12-26T04:29:58.490Z,41.00
2018-12-26T04:30:58.457Z,43.20
2018-12-26T04:31:58.423Z,43.10
2018-12-26T04:32:58.393Z,37.70
2018-12-26T04:33:58.365Z,43.20
2018-12-26T04:34:58.328Z,43.90
2018-12-26T04:35:58.297Z,46.70
2018-12-26T04:36:58.269Z,46.00
2018-12-26T04:37:58.234Z,43.80
2018-12-26T04:38:58.212Z,42.60
2018-12-26T04:39:58.176Z,38.40
2018-12-26T04:40:58.138Z,48.00
2018-12-26T04:41:58.105Z,44.70
2018-12-26T04:42:58.077Z,45.30
2018-12-26T04:43:58.041Z,45.10
2018-12-26T04:44:58.008Z,47.90
2018-12-26T04:45:57.977Z,46.10
2018-12-26T04:46:57.949Z,34.50
2018-12-26T04:47:57.911Z,36.60
2018-12-26T04:48:57.881Z,39.60
2018-12-26T04:49:57.848Z,38.10
2018-12-26T04:50:57.816Z,35.20
2018-12-26T04:51:57.786Z,40.10
2018-12-26T04:52:57.762Z,42.60
2018-12-26T04:53:57.733Z,44.70
2018-12-26T04:54:57.689Z,40.00
2018-12-26T04:55:57.661Z,35.40
2018-12-26T04:56:57.628Z,34.20
2018-12-26T04:57:57.592Z,40.80
2018-12-26T04:58:57.559Z,39.80
2018-12-26T04:59:57.529Z,42.70
2018-12-26T05:00:57.496Z,43.60
2018-12-26T05:01:57.465Z,36.80
2018-12-26T05:02:57.435Z,41.90
2018-12-26T05:03:57.403Z,45.20
2018-12-26T05:04:57.369Z,39.30
2018-12-26T05:05:57.336Z,39.00
2018-12-26T05:06:57.304Z,37.20
2018-12-26T05:07:57.272Z,40.20
2018-12-26T05:08:57.244Z,38.60
2018-12-26T05:09:57.215Z,35.20
2018-12-26T05:10:57.176Z,42.20
2018-12-26T05:11:57.144Z,45.00
2018-12-26T05:12:57.113Z,37.20
2018-12-26T05:13:57.080Z,36.50
2018-12-26T05:14:57.048Z,36.80
2018-12-26T05:15:57.020Z,43.70
2018-12-26T05:16:56.985Z,44.20
2018-12-26T05:17:56.951Z,42.00
2018-12-26T05:18:56.923Z,44.60
2018-12-26T05:19:56.889Z,40.00
2018-12-26T05:20:56.860Z,44.30
2018-12-26T05:21:56.825Z,41.60
2018-12-26T05:22:56.792Z,39.00
2018-12-26T05:23:56.769Z,43.70
2018-12-26T05:24:56.728Z,40.50
2018-12-26T05:25:56.695Z,38.50
2018-12-26T05:26:56.688Z,45.50
2018-12-26T05:27:56.631Z,46.30
2018-12-26T05:28:56.623Z,41.60
2018-12-26T05:29:56.566Z,39.90
2018-12-26T05:30:56.535Z,32.50
2018-12-26T05:31:56.502Z,42.80
2018-12-26T05:32:56.473Z,48.60
2018-12-26T05:33:56.438Z,45.90
2018-12-26T05:34:56.406Z,42.60
2018-12-26T05:35:56.374Z,43.10
2018-12-26T05:36:56.372Z,29.60
2018-12-26T05:37:56.311Z,35.10
2018-12-26T05:38:56.279Z,33.20
2018-12-26T05:39:56.245Z,43.10
2018-12-26T05:40:56.218Z,43.90
2018-12-26T05:41:56.183Z,47.30
2018-12-26T05:42:56.148Z,35.70
2018-12-26T05:43:56.118Z,45.20
2018-12-26T05:44:56.085Z,50.60
2018-12-26T05:45:56.054Z,47.40
2018-12-26T05:46:56.027Z,46.10
2018-12-26T05:47:55.990Z,48.60
2018-12-26T05:48:55.959Z,43.40
2018-12-26T05:49:55.927Z,50.40
2018-12-26T05:50:55.893Z,47.20
2018-12-26T05:51:55.862Z,47.50
2018-12-26T05:52:55.832Z,27.30
2018-12-26T05:53:55.799Z,45.30
2018-12-26T05:54:55.766Z,44.00
2018-12-26T05:55:55.737Z,43.90
2018-12-26T05:56:55.704Z,48.30
2018-12-26T05:57:55.672Z,34.70
2018-12-26T05:58:55.638Z,48.40
2018-12-26T05:59:55.607Z,45.80
2018-12-26T06:00:55.575Z,41.90
2018-12-26T06:01:55.544Z,46.20
2018-12-26T06:02:55.511Z,38.10
2018-12-26T06:03:55.479Z,37.80
2018-12-26T06:04:55.447Z,52.40
2018-12-26T06:05:55.424Z,52.00
2018-12-26T06:06:55.382Z,49.80
2018-12-26T06:07:55.351Z,47.90
2018-12-26T06:08:55.326Z,54.60
2018-12-26T06:09:55.290Z,51.80
2018-12-26T06:10:55.259Z,47.90
2018-12-26T06:11:55.244Z,54.80
2018-12-26T06:12:55.191Z,45.90
2018-12-26T06:13:55.162Z,55.40
2018-12-26T06:14:55.129Z,47.70
2018-12-26T06:15:55.099Z,55.20
2018-12-26T06:16:55.066Z,56.90
2018-12-26T06:17:55.034Z,55.60
2018-12-26T06:18:55.000Z,58.20
2018-12-26T06:19:54.970Z,57.40
2018-12-26T06:20:54.938Z,30.30
2018-12-26T06:21:54.908Z,47.10
2018-12-26T06:22:54.875Z,58.50
2018-12-26T06:23:54.883Z,59.90
2018-12-26T06:24:54.811Z,57.80
2018-12-26T06:25:54.780Z,57.60
2018-12-26T06:26:54.747Z,56.90
2018-12-26T06:27:54.717Z,54.70
2018-12-26T06:28:54.683Z,59.70
2018-12-26T06:29:54.653Z,63.20
2018-12-26T06:30:54.620Z,54.80
2018-12-26T06:31:54.588Z,62.00
2018-12-26T06:32:54.557Z,44.40
2018-12-26T06:33:54.524Z,41.80
2018-12-26T06:34:54.492Z,50.50
2018-12-26T06:35:54.461Z,39.10
2018-12-26T06:36:54.430Z,52.50
2018-12-26T06:37:54.399Z,57.60
2018-12-26T06:38:54.366Z,44.10
2018-12-26T06:39:54.333Z,53.40
2018-12-26T06:40:54.303Z,56.00
2018-12-26T06:41:54.271Z,55.00
2018-12-26T06:42:54.238Z,47.20
2018-12-26T06:43:54.209Z,63.50
2018-12-26T06:44:54.176Z,51.70
2018-12-26T06:45:54.153Z,43.30
2018-12-26T06:46:54.113Z,50.90
2018-12-26T06:47:54.080Z,60.20
2018-12-26T06:48:54.049Z,60.60
2018-12-26T06:49:54.021Z,64.60
2018-12-26T06:50:53.989Z,62.80
2018-12-26T06:51:53.959Z,51.40
2018-12-26T06:52:53.922Z,66.50
2018-12-26T06:53:53.892Z,35.20
2018-12-26T06:54:53.860Z,54.90
2018-12-26T06:55:53.829Z,45.30
2018-12-26T06:56:53.849Z,61.90
2018-12-26T06:58:00.053Z,60.30
2018-12-26T06:58:53.739Z,65.50
2018-12-26T06:59:53.702Z,66.80
2018-12-26T07:00:53.675Z,57.60
2018-12-26T07:01:53.638Z,67.50
2018-12-26T07:02:53.608Z,63.90
2018-12-26T07:03:53.578Z,62.60
2018-12-26T07:04:53.544Z,57.20
2018-12-26T07:05:53.512Z,57.30
2018-12-26T07:06:53.480Z,64.60
2018-12-26T07:07:53.448Z,55.20
2018-12-26T07:08:53.417Z,44.00
2018-12-26T07:09:53.387Z,42.80
2018-12-26T07:10:53.356Z,51.20
2018-12-26T07:11:53.332Z,64.70
2018-12-26T07:12:53.292Z,53.70
2018-12-26T07:13:53.263Z,58.50
2018-12-26T07:14:53.231Z,67.70
2018-12-26T07:15:53.199Z,50.70
2018-12-26T07:16:53.166Z,54.20
2018-12-26T07:17:53.284Z,52.70
2018-12-26T07:18:53.100Z,60.40
2018-12-26T07:19:53.071Z,64.30
2018-12-26T07:20:53.039Z,49.80
2018-12-26T07:21:53.010Z,63.00
2018-12-26T07:22:52.978Z,63.00
2018-12-26T07:23:52.944Z,56.80
2018-12-26T07:24:52.913Z,52.90
2018-12-26T07:25:52.881Z,48.90
2018-12-26T07:26:52.848Z,60.00
2018-12-26T07:27:52.818Z,57.10
2018-12-26T07:28:52.790Z,62.10
2018-12-26T07:29:52.758Z,60.10
2018-12-26T07:30:52.724Z,65.50
2018-12-26T07:31:52.691Z,65.10
2018-12-26T07:32:52.660Z,58.50
2018-12-26T07:33:52.629Z,53.60
2018-12-26T07:34:52.597Z,40.80
2018-12-26T07:35:52.570Z,53.30
2018-12-26T07:36:52.537Z,39.20
2018-12-26T07:37:52.504Z,49.50
2018-12-26T07:38:52.471Z,56.50
2018-12-26T07:39:52.444Z,56.20
2018-12-26T07:40:52.414Z,58.40
2018-12-26T07:41:52.381Z,54.60
2018-12-26T07:42:52.344Z,55.60
2018-12-26T07:43:52.313Z,52.90
2018-12-26T07:44:52.281Z,56.10
2018-12-26T07:45:52.252Z,54.60
2018-12-26T07:46:53.071Z,57.00
2018-12-26T07:47:52.186Z,57.80
2018-12-26T07:48:52.164Z,56.40
2018-12-26T07:49:52.123Z,64.10
2018-12-26T07:50:52.103Z,56.00
2018-12-26T07:51:52.061Z,56.50
2018-12-26T07:52:52.029Z,55.80
2018-12-26T07:53:51.998Z,56.50
2018-12-26T07:54:51.966Z,55.40
2018-12-26T07:55:51.934Z,55.80
2018-12-26T07:56:51.907Z,55.90
2018-12-26T07:57:51.872Z,64.00
2018-12-26T07:58:51.844Z,54.10
2018-12-26T07:59:51.810Z,59.30
2018-12-26T08:00:51.780Z,63.10
2018-12-26T08:01:51.749Z,51.50
2018-12-26T08:02:51.717Z,52.50
2018-12-26T08:03:51.684Z,56.10
2018-12-26T08:04:51.652Z,48.70
2018-12-26T08:05:51.619Z,55.60
2018-12-26T08:06:51.587Z,45.50
2018-12-26T08:07:51.578Z,51.00
2018-12-26T08:08:51.526Z,36.60
2018-12-26T08:09:51.494Z,48.80
2018-12-26T08:10:51.462Z,59.00
2018-12-26T08:11:51.430Z,51.00
2018-12-26T08:12:51.399Z,52.90
2018-12-26T08:13:51.368Z,51.60
2018-12-26T08:14:51.336Z,50.50
2018-12-26T08:15:51.304Z,50.50
2018-12-26T08:16:53.294Z,48.90
2018-12-26T08:17:51.246Z,54.50
2018-12-26T08:18:51.210Z,52.10
2018-12-26T08:19:51.180Z,44.40
2018-12-26T08:20:51.149Z,46.40
2018-12-26T08:21:51.116Z,47.10
2018-12-26T08:22:51.084Z,37.80
2018-12-26T08:23:51.056Z,47.10
2018-12-26T08:24:51.120Z,50.60
2018-12-26T08:25:50.994Z,47.70
2018-12-26T08:26:50.959Z,48.30
2018-12-26T08:27:50.928Z,53.50
2018-12-26T08:28:50.895Z,48.10
2018-12-26T08:29:50.867Z,53.80
2018-12-26T08:30:50.834Z,54.10
2018-12-26T08:31:50.802Z,51.70
2018-12-26T08:32:50.772Z,48.50
2018-12-26T08:33:50.742Z,57.50
2018-12-26T08:34:50.708Z,53.80
2018-12-26T08:35:50.682Z,58.70
2018-12-26T08:36:50.645Z,53.00
2018-12-26T08:37:50.618Z,57.20
2018-12-26T08:38:50.589Z,51.40
2018-12-26T08:39:50.558Z,51.70
2018-12-26T08:40:50.521Z,50.50
2018-12-26T08:41:50.489Z,54.50
2018-12-26T08:42:50.457Z,52.30
2018-12-26T08:43:50.427Z,51.10
2018-12-26T08:44:50.396Z,54.20
2018-12-26T08:45:50.365Z,52.10
2018-12-26T08:46:50.334Z,49.20
2018-12-26T08:47:50.300Z,48.70
2018-12-26T08:48:50.271Z,55.50
2018-12-26T08:49:50.239Z,52.00
2018-12-26T08:50:50.207Z,48.80
2018-12-26T08:51:50.262Z,35.40
2018-12-26T08:52:50.350Z,48.30
2018-12-26T08:53:50.115Z,53.10
2018-12-26T08:54:50.088Z,50.60
2018-12-26T08:55:50.053Z,54.20
2018-12-26T08:56:50.026Z,56.10
2018-12-26T08:57:49.991Z,42.50
2018-12-26T08:58:49.962Z,27.70
2018-12-26T08:59:49.927Z,52.80
2018-12-26T09:00:49.895Z,55.00
2018-12-26T09:01:49.866Z,56.50
2018-12-26T09:02:50.689Z,54.20
2018-12-26T09:03:49.804Z,47.80
2018-12-26T09:04:49.775Z,47.70
2018-12-26T09:05:49.742Z,48.50
2018-12-26T09:06:49.707Z,50.10
2018-12-26T09:07:49.677Z,46.10
2018-12-26T09:08:49.648Z,45.30
2018-12-26T09:09:49.627Z,42.60
2018-12-26T09:10:49.585Z,46.60
2018-12-26T09:11:49.552Z,46.50
2018-12-26T09:12:49.522Z,45.60
2018-12-26T09:13:49.490Z,43.90
2018-12-26T09:14:49.460Z,44.30
2018-12-26T09:15:49.428Z,46.50
2018-12-26T09:16:49.402Z,46.00
2018-12-26T09:17:49.372Z,40.30
2018-12-26T09:18:49.335Z,40.50
2018-12-26T09:19:49.308Z,41.70
2018-12-26T09:20:49.273Z,41.40
2018-12-26T09:21:49.241Z,40.50
2018-12-26T09:22:49.212Z,41.00
2018-12-26T09:23:49.180Z,39.80
2018-12-26T09:24:49.150Z,44.50
2018-12-26T09:25:49.118Z,41.40
2018-12-26T09:26:49.086Z,36.60
2018-12-26T09:27:49.055Z,38.10
2018-12-26T09:28:49.025Z,37.50
2018-12-26T09:29:48.994Z,37.20
2018-12-26T09:30:48.961Z,34.70
2018-12-26T09:31:48.930Z,37.70
2018-12-26T09:32:48.902Z,38.00
2018-12-26T09:33:48.871Z,40.10
2018-12-26T09:34:48.847Z,40.70
2018-12-26T09:35:48.811Z,37.40
2018-12-26T09:36:48.776Z,39.20
2018-12-26T09:37:48.746Z,44.90
2018-12-26T09:38:48.714Z,42.20
2018-12-26T09:39:48.683Z,41.90
2018-12-26T09:40:48.655Z,40.30
2018-12-26T09:41:48.622Z,43.00
2018-12-26T09:42:48.590Z,38.90
2018-12-26T09:43:48.560Z,38.30
2018-12-26T09:44:54.325Z,42.40
2018-12-26T09:45:48.498Z,37.40
2018-12-26T09:46:48.467Z,36.20
2018-12-26T09:47:48.435Z,40.10
2018-12-26T09:48:48.408Z,35.80
2018-12-26T09:49:48.374Z,37.70
2018-12-26T09:50:48.353Z,41.00
2018-12-26T09:51:48.313Z,41.90
2018-12-26T09:52:48.282Z,38.60
2018-12-26T09:53:48.255Z,38.30
2018-12-26T09:54:49.293Z,39.00
2018-12-26T09:55:48.190Z,39.70
2018-12-26T09:56:48.163Z,40.40
2018-12-26T09:57:48.131Z,41.00
2018-12-26T09:58:52.418Z,39.50
2018-12-26T09:59:48.066Z,41.30
2018-12-26T10:00:48.034Z,43.10
2018-12-26T10:01:48.007Z,39.20
2018-12-26T10:02:47.973Z,37.00
2018-12-26T10:03:47.944Z,38.40
2018-12-26T10:04:47.914Z,40.30
2018-12-26T10:05:47.882Z,39.40
2018-12-26T10:06:47.850Z,35.40
2018-12-26T10:07:47.819Z,37.60
2018-12-26T10:08:47.790Z,32.50
2018-12-26T10:09:47.758Z,38.00
2018-12-26T10:10:47.728Z,37.80
2018-12-26T10:11:47.695Z,34.90
2018-12-26T10:12:47.667Z,36.80
2018-12-26T10:13:47.634Z,39.40
2018-12-26T10:14:47.604Z,39.50
2018-12-26T10:15:47.572Z,38.90
2018-12-26T10:16:47.547Z,39.20
2018-12-26T10:17:47.510Z,37.90
2018-12-26T10:18:47.484Z,34.00
2018-12-26T10:19:47.450Z,34.70
2018-12-26T10:20:47.419Z,35.90
2018-12-26T10:21:47.392Z,30.50
2018-12-26T10:22:47.357Z,34.10
2018-12-26T10:23:47.332Z,40.20
2018-12-26T10:24:47.296Z,40.50
2018-12-26T10:25:47.265Z,37.30
2018-12-26T10:26:47.240Z,38.30
2018-12-26T10:27:47.202Z,37.90
2018-12-26T10:28:47.259Z,38.60
2018-12-26T10:29:47.141Z,38.10
2018-12-26T10:30:47.111Z,34.50
2018-12-26T10:31:47.081Z,37.30
2018-12-26T10:32:47.050Z,39.10
2018-12-26T10:33:47.020Z,35.90
2018-12-26T10:34:46.995Z,36.80
2018-12-26T10:35:46.957Z,38.00
2018-12-26T10:36:46.927Z,36.20
2018-12-26T10:37:46.906Z,33.90
2018-12-26T10:38:46.867Z,34.70
2018-12-26T10:39:46.837Z,35.70
2018-12-26T10:40:46.804Z,33.30
2018-12-26T10:41:46.774Z,33.50
2018-12-26T10:42:46.744Z,29.80
2018-12-26T10:43:46.714Z,29.60
2018-12-26T10:44:46.682Z,32.60
2018-12-26T10:45:46.652Z,29.60
2018-12-26T10:46:46.619Z,31.10
2018-12-26T10:47:46.590Z,30.70
2018-12-26T10:48:46.559Z,31.80
2018-12-26T10:49:46.529Z,29.50
2018-12-26T10:50:46.499Z,32.10
2018-12-26T10:51:46.466Z,32.90
2018-12-26T10:52:46.441Z,32.70
2018-12-26T10:53:46.405Z,32.80
2018-12-26T10:54:46.376Z,33.30
2018-12-26T10:55:46.345Z,33.00
2018-12-26T10:56:46.313Z,30.30
2018-12-26T10:57:46.285Z,32.60
2018-12-26T10:58:46.253Z,33.60
2018-12-26T10:59:46.222Z,30.00
2018-12-26T11:00:46.192Z,32.70
2018-12-26T11:01:46.161Z,32.80
2018-12-26T11:02:46.130Z,32.80
2018-12-26T11:03:46.114Z,33.30
2018-12-26T11:04:46.069Z,32.20
2018-12-26T11:05:46.040Z,30.00
2018-12-26T11:06:46.008Z,28.50
2018-12-26T11:07:45.978Z,32.40
2018-12-26T11:08:45.947Z,33.60
2018-12-26T11:09:45.916Z,31.50
2018-12-26T11:10:45.885Z,32.70
2018-12-26T11:11:45.856Z,35.00
2018-12-26T11:12:45.824Z,30.40
2018-12-26T11:13:45.795Z,29.60
2018-12-26T11:14:45.764Z,31.80
2018-12-26T11:15:45.735Z,32.70
2018-12-26T11:16:45.706Z,33.60
2018-12-26T11:17:45.676Z,32.90
2018-12-26T11:18:45.642Z,31.70
2018-12-26T11:19:45.611Z,35.30
2018-12-26T11:20:45.580Z,33.70
2018-12-26T11:21:45.551Z,32.90
2018-12-26T11:22:45.521Z,39.20
2018-12-26T11:23:45.488Z,35.00
2018-12-26T11:24:45.465Z,33.70
2018-12-26T11:25:45.427Z,37.30
2018-12-26T11:26:45.396Z,41.90
2018-12-26T11:27:45.367Z,37.60
2018-12-26T11:28:45.336Z,39.40
2018-12-26T11:29:45.311Z,28.40
2018-12-26T11:30:45.279Z,37.00
2018-12-26T11:31:45.244Z,37.40
2018-12-26T11:32:45.215Z,34.70
2018-12-26T11:33:45.185Z,31.60
2018-12-26T11:34:45.154Z,37.20
2018-12-26T11:35:45.123Z,31.70
2018-12-26T11:36:45.096Z,32.10
2018-12-26T11:37:45.065Z,32.90
2018-12-26T11:38:45.033Z,36.90
2018-12-26T11:39:45.001Z,30.90
2018-12-26T11:40:44.971Z,33.70
2018-12-26T11:41:44.944Z,31.10
2018-12-26T11:42:44.910Z,32.00
2018-12-26T11:43:44.881Z,34.30
2018-12-26T11:44:44.849Z,34.40
2018-12-26T11:45:44.819Z,34.60
2018-12-26T11:46:44.787Z,34.10
2018-12-26T11:47:44.757Z,28.40
2018-12-26T11:48:44.734Z,32.10
2018-12-26T11:49:44.699Z,35.70
2018-12-26T11:50:44.666Z,32.30
2018-12-26T11:51:44.635Z,35.10
2018-12-26T11:52:44.605Z,33.90
2018-12-26T11:53:44.577Z,34.00
2018-12-26T11:54:44.544Z,33.50
2018-12-26T11:55:44.514Z,33.10
2018-12-26T11:56:44.482Z,32.60
2018-12-26T11:57:44.453Z,35.60
2018-12-26T11:58:44.424Z,33.80
2018-12-26T11:59:44.391Z,34.90
2018-12-26T12:00:44.361Z,33.20
2018-12-26T12:01:44.333Z,33.20
2018-12-26T12:02:44.308Z,32.50
2018-12-26T12:03:44.271Z,31.40
2018-12-26T12:04:44.242Z,33.00
2018-12-26T12:05:44.211Z,33.60
2018-12-26T12:06:44.180Z,33.10
2018-12-26T12:07:44.150Z,32.40
2018-12-26T12:08:44.121Z,31.60
2018-12-26T12:09:44.088Z,33.20
2018-12-26T12:10:44.077Z,33.40
2018-12-26T12:11:44.028Z,37.70
2018-12-26T12:12:43.999Z,32.30
2018-12-26T12:13:43.968Z,34.80
2018-12-26T12:14:43.937Z,34.40
2018-12-26T12:15:43.912Z,34.20
2018-12-26T12:16:43.882Z,30.40
2018-12-26T12:17:43.847Z,35.00
2018-12-26T12:18:43.814Z,35.50
2018-12-26T12:19:45.179Z,35.50
2018-12-26T12:20:43.755Z,35.10
2018-12-26T12:21:43.732Z,35.90
2018-12-26T12:22:43.695Z,33.30
2018-12-26T12:23:43.734Z,35.10
2018-12-26T12:24:43.635Z,36.90
2018-12-26T12:25:43.605Z,38.80
2018-12-26T12:26:43.573Z,33.30
2018-12-26T12:27:43.545Z,35.30
2018-12-26T12:28:43.513Z,38.20
2018-12-26T12:29:43.484Z,38.70
2018-12-26T12:30:43.459Z,41.40
2018-12-26T12:31:43.422Z,40.20
2018-12-26T12:32:43.399Z,40.60
2018-12-26T12:33:43.362Z,39.50
2018-12-26T12:34:43.338Z,41.10
2018-12-26T12:35:43.303Z,42.60
2018-12-26T12:36:43.274Z,44.70
2018-12-26T12:37:43.244Z,41.10
2018-12-26T12:38:43.213Z,37.20
2018-12-26T12:39:43.183Z,42.60
2018-12-26T12:40:43.154Z,43.50
2018-12-26T12:41:43.124Z,43.50
2018-12-26T12:42:43.092Z,43.10
2018-12-26T12:43:43.061Z,44.50
2018-12-26T12:44:43.032Z,42.90
2018-12-26T12:45:43.001Z,45.70
2018-12-26T12:46:42.974Z,44.60
2018-12-26T12:47:42.944Z,47.90
2018-12-26T12:48:42.914Z,45.20
2018-12-26T12:49:42.886Z,48.40
2018-12-26T12:50:42.852Z,46.90
2018-12-26T12:51:42.821Z,53.70
2018-12-26T12:52:42.790Z,46.60